createdAt,value
2019-03-12T00:00:10.988Z,64.96
2019-03-12T00:02:39.409Z,65.13
2019-03-12T00:05:09.029Z,65.41
2019-03-12T00:07:37.529Z,65.74
2019-03-12T00:10:08.623Z,66.21
2019-03-12T00:12:37.047Z,66.33
2019-03-12T00:15:06.974Z,66.07
2019-03-12T00:17:35.462Z,66.26
2019-03-12T00:20:05.624Z,66.43
2019-03-12T00:22:34.049Z,66.71
2019-03-12T00:25:02.431Z,67.20
2019-03-12T00:27:30.846Z,67.19
2019-03-12T00:29:59.253Z,67.30
2019-03-12T00:32:27.683Z,67.42
2019-03-12T00:34:56.081Z,67.47
2019-03-12T00:37:24.491Z,67.67
2019-03-12T00:39:52.892Z,67.59
2019-03-12T00:42:21.361Z,67.54
2019-03-12T00:44:49.742Z,67.35
2019-03-12T00:47:18.157Z,67.83
2019-03-12T00:49:46.562Z,67.75
2019-03-12T00:52:14.949Z,67.84
2019-03-12T00:54:43.437Z,68.25
2019-03-12T00:57:11.915Z,68.07
2019-03-12T00:59:40.317Z,68.11
2019-03-12T01:02:08.724Z,68.37
2019-03-12T01:04:37.275Z,68.82
2019-03-12T01:07:05.689Z,68.39
2019-03-12T01:09:34.121Z,68.54
2019-03-12T01:12:02.535Z,69.29
2019-03-12T01:14:30.942Z,69.52
2019-03-12T01:16:59.323Z,69.96
2019-03-12T01:19:27.734Z,70.04
2019-03-12T01:21:56.152Z,70.06
2019-03-12T01:24:24.555Z,70.33
2019-03-12T01:26:52.943Z,70.39
2019-03-12T01:29:21.363Z,70.34
2019-03-12T01:31:49.757Z,70.46
2019-03-12T01:34:18.201Z,70.89
2019-03-12T01:36:46.678Z,70.97
2019-03-12T01:39:15.261Z,70.69
2019-03-12T01:41:43.656Z,70.81
2019-03-12T01:44:12.059Z,70.75
2019-03-12T01:46:40.464Z,71.09
2019-03-12T01:49:08.853Z,71.08
2019-03-12T01:51:37.270Z,70.70
2019-03-12T01:54:05.654Z,70.73
2019-03-12T01:56:34.054Z,70.51
2019-03-12T01:59:02.450Z,70.96
2019-03-12T02:01:30.852Z,70.70
2019-03-12T02:03:59.243Z,70.74
2019-03-12T02:06:27.657Z,70.78
2019-03-12T02:08:56.063Z,70.73
2019-03-12T02:11:24.565Z,71.06
2019-03-12T02:13:52.953Z,70.85
2019-03-12T02:16:21.340Z,70.93
2019-03-12T02:18:49.803Z,71.18
2019-03-12T02:21:18.224Z,71.12
2019-03-12T02:23:46.711Z,71.65
2019-03-12T02:26:15.142Z,71.74
2019-03-12T02:28:43.598Z,71.75
2019-03-12T02:31:12.056Z,72.05
2019-03-12T02:33:40.445Z,72.09
2019-03-12T02:36:08.938Z,72.06
2019-03-12T02:38:37.333Z,72.11
2019-03-12T02:41:05.814Z,72.29
2019-03-12T02:43:34.209Z,72.66
2019-03-12T02:46:02.583Z,73.20
2019-03-12T02:48:30.977Z,73.39
2019-03-12T02:50:59.365Z,73.49
2019-03-12T02:53:27.772Z,73.76
2019-03-12T02:55:56.178Z,74.02
2019-03-12T02:58:24.583Z,74.09
2019-03-12T03:00:52.967Z,74.43
2019-03-12T03:03:21.384Z,74.85
2019-03-12T03:05:51.435Z,74.67
2019-03-12T03:08:21.485Z,74.92
2019-03-12T03:10:49.878Z,75.02
2019-03-12T03:13:18.289Z,75.48
2019-03-12T03:15:47.511Z,75.60
2019-03-12T03:18:15.877Z,75.88
2019-03-12T03:20:44.274Z,75.90
2019-03-12T03:23:12.648Z,75.81
2019-03-12T03:25:41.072Z,75.60
2019-03-12T03:28:09.449Z,75.92
2019-03-12T03:30:37.960Z,75.96
2019-03-12T03:33:06.410Z,76.23
2019-03-12T03:35:34.800Z,75.92
2019-03-12T03:38:03.243Z,76.04
2019-03-12T03:40:31.687Z,77.06
2019-03-12T03:43:00.108Z,76.39
2019-03-12T03:45:28.571Z,76.62
2019-03-12T03:47:56.966Z,77.11
2019-03-12T03:50:25.428Z,76.94
2019-03-12T03:52:53.813Z,77.39
2019-03-12T03:55:23.173Z,77.64
2019-03-12T03:57:51.621Z,78.28
2019-03-12T04:00:24.209Z,78.75
2019-03-12T04:02:52.666Z,78.88
2019-03-12T04:05:21.324Z,78.59
2019-03-12T04:07:49.709Z,79.07
2019-03-12T04:10:18.310Z,79.33
2019-03-12T04:12:46.709Z,79.43
2019-03-12T04:15:16.591Z,79.46
2019-03-12T04:17:45.050Z,79.55
2019-03-12T04:20:15.085Z,80.09
2019-03-12T04:22:43.630Z,80.80
2019-03-12T04:28:34.368Z,80.87
2019-03-12T04:31:02.782Z,81.50
2019-03-12T04:33:59.514Z,81.43
2019-03-12T04:36:27.948Z,81.79
2019-03-12T04:38:56.354Z,82.04
2019-03-12T04:41:24.761Z,81.49
2019-03-12T04:43:53.160Z,82.48
2019-03-12T04:46:21.569Z,82.37
2019-03-12T04:48:49.963Z,81.99
2019-03-12T04:51:18.356Z,82.23
2019-03-12T04:53:46.758Z,83.04
2019-03-12T04:56:15.151Z,83.01
2019-03-12T04:58:43.543Z,83.31
2019-03-12T05:01:11.949Z,82.97
2019-03-12T05:03:40.415Z,82.81
2019-03-12T05:06:08.817Z,82.56
2019-03-12T05:08:37.231Z,82.69
2019-03-12T05:11:05.642Z,82.61
2019-03-12T05:13:34.034Z,83.15
2019-03-12T05:16:02.505Z,83.73
2019-03-12T05:18:30.900Z,83.53
2019-03-12T05:20:59.301Z,83.85
2019-03-12T05:23:27.721Z,84.07
2019-03-12T05:25:56.119Z,84.42
2019-03-12T05:28:24.603Z,84.90
2019-03-12T05:30:52.990Z,84.62
2019-03-12T05:33:21.394Z,85.05
2019-03-12T05:35:49.792Z,84.82
2019-03-12T05:38:18.185Z,84.93
2019-03-12T05:40:46.594Z,84.94
2019-03-12T05:43:15.087Z,84.89
2019-03-12T05:45:43.498Z,85.50
2019-03-12T05:48:11.917Z,85.32
2019-03-12T05:50:40.304Z,85.05
2019-03-12T05:53:13.318Z,84.72
2019-03-12T05:55:41.743Z,84.54
2019-03-12T05:58:10.169Z,86.07
2019-03-12T06:00:38.710Z,86.14
2019-03-12T06:03:07.873Z,86.22
2019-03-12T06:05:36.341Z,86.23
2019-03-12T06:08:04.908Z,86.05
2019-03-12T06:10:33.337Z,85.45
2019-03-12T06:13:01.772Z,84.66
2019-03-12T06:15:30.239Z,84.02
2019-03-12T06:17:58.639Z,83.26
2019-03-12T06:20:27.062Z,83.28
2019-03-12T06:22:55.470Z,86.68
2019-03-12T06:25:23.891Z,85.68
2019-03-12T06:27:52.324Z,83.78
2019-03-12T06:30:21.180Z,82.24
2019-03-12T06:33:03.257Z,80.75
2019-03-12T06:35:33.386Z,78.86
2019-03-12T06:38:03.439Z,77.88
2019-03-12T06:40:45.684Z,76.22
2019-03-12T06:43:28.038Z,75.52
2019-03-12T06:45:58.074Z,73.79
2019-03-12T06:48:28.136Z,72.89
2019-03-12T06:51:00.734Z,71.26
2019-03-12T06:53:33.663Z,71.06
2019-03-12T06:56:19.602Z,70.20
2019-03-12T06:58:49.649Z,69.72
2019-03-12T07:01:19.761Z,67.95
2019-03-12T07:03:55.559Z,66.69
2019-03-12T07:06:41.758Z,66.33
2019-03-12T07:09:24.018Z,65.63
2019-03-12T07:11:59.946Z,65.23
2019-03-12T07:14:32.654Z,65.83
2019-03-12T07:17:05.428Z,64.75
2019-03-12T07:19:50.700Z,63.82
2019-03-12T07:22:36.979Z,64.35
2019-03-12T07:25:16.027Z,62.58
2019-03-12T07:27:49.054Z,62.28
2019-03-12T07:30:24.846Z,62.33
2019-03-12T07:33:06.368Z,63.02
2019-03-12T07:35:39.127Z,62.36
2019-03-12T07:38:25.171Z,58.71
2019-03-12T07:41:01.060Z,53.19
2019-03-12T07:43:31.152Z,48.80
2019-03-12T07:46:09.677Z,44.34
2019-03-12T07:48:51.609Z,44.09
2019-03-12T07:51:21.650Z,40.24
2019-03-12T07:54:07.564Z,40.23
2019-03-12T07:56:43.376Z,42.21
2019-03-12T07:59:13.418Z,42.37
2019-03-12T08:01:43.471Z,43.11
2019-03-12T08:04:25.843Z,43.08
2019-03-12T08:06:58.942Z,42.15
2019-03-12T08:09:29.029Z,42.18
2019-03-12T08:12:01.923Z,42.91
2019-03-12T08:14:31.921Z,41.17
2019-03-12T08:17:07.819Z,39.56
2019-03-12T08:19:43.730Z,38.04
2019-03-12T08:22:29.949Z,37.12
2019-03-12T08:25:05.875Z,35.68
2019-03-12T08:27:51.902Z,34.08
2019-03-12T08:30:37.109Z,33.69
2019-03-12T08:33:16.018Z,32.48
2019-03-12T08:35:48.989Z,30.19
2019-03-12T08:38:35.208Z,32.13
2019-03-12T08:41:14.443Z,32.31
2019-03-12T08:43:44.498Z,31.60
2019-03-12T08:46:23.239Z,30.93
2019-03-12T08:49:05.268Z,29.13
2019-03-12T08:51:35.350Z,28.89
2019-03-12T08:54:08.702Z,29.06
2019-03-12T08:56:51.169Z,30.20
2019-03-12T08:59:33.119Z,31.21
2019-03-12T09:02:06.147Z,30.96
2019-03-12T09:04:41.956Z,31.53
2019-03-12T09:07:17.526Z,31.27
2019-03-12T09:10:03.770Z,30.76
2019-03-12T09:12:43.159Z,30.69
2019-03-12T09:15:16.071Z,30.72
2019-03-12T09:17:46.202Z,28.70
2019-03-12T09:20:31.353Z,28.40
2019-03-12T09:23:07.359Z,29.33
2019-03-12T09:25:46.541Z,30.62
2019-03-12T09:28:25.342Z,29.26
2019-03-12T09:31:01.077Z,29.69
2019-03-12T09:33:33.827Z,29.03
2019-03-12T09:36:03.948Z,28.16
2019-03-12T09:38:35.608Z,27.50
2019-03-12T09:41:20.675Z,28.33
2019-03-12T09:43:50.777Z,26.99
2019-03-12T09:46:33.073Z,27.52
2019-03-12T09:49:19.698Z,26.97
2019-03-12T09:52:01.555Z,25.59
2019-03-12T09:54:31.594Z,23.75
2019-03-12T09:57:19.515Z,24.51
2019-03-12T09:59:55.180Z,23.99
2019-03-12T10:02:40.358Z,27.15
2019-03-12T10:05:19.527Z,29.78
2019-03-12T10:08:01.583Z,29.65
2019-03-12T10:10:34.569Z,30.12
2019-03-12T10:13:10.601Z,29.75
2019-03-12T10:15:49.427Z,29.46
2019-03-12T10:18:25.066Z,29.96
2019-03-12T10:21:00.604Z,28.79
2019-03-12T10:23:33.346Z,28.52
2019-03-12T10:26:12.214Z,31.02
2019-03-12T10:28:51.292Z,31.04
2019-03-12T10:31:37.546Z,29.35
2019-03-12T10:34:07.603Z,28.07
2019-03-12T10:36:37.649Z,30.19
2019-03-12T10:39:59.450Z,28.85
2019-03-12T10:42:35.268Z,27.05
2019-03-12T10:45:06.182Z,24.88
2019-03-12T10:47:45.261Z,24.35
2019-03-12T10:50:14.253Z,26.51
2019-03-12T10:52:42.688Z,28.17
2019-03-12T10:55:13.631Z,28.65
2019-03-12T10:57:41.475Z,28.84
2019-03-12T11:00:15.556Z,30.64
2019-03-12T11:02:44.020Z,29.97
2019-03-12T11:05:12.566Z,29.26
2019-03-12T11:07:40.992Z,29.94
2019-03-12T11:10:17.390Z,30.55
2019-03-12T11:12:45.801Z,30.06
2019-03-12T11:15:15.452Z,28.36
2019-03-12T11:17:49.336Z,28.01
2019-03-12T11:20:19.934Z,27.37
2019-03-12T11:22:48.355Z,26.09
2019-03-12T11:25:26.399Z,27.56
2019-03-12T11:27:46.876Z,29.27
2019-03-12T11:30:19.119Z,29.05
2019-03-12T11:32:47.515Z,29.21
2019-03-12T11:35:15.917Z,29.81
2019-03-12T11:37:44.381Z,29.81
2019-03-12T11:40:25.460Z,31.79
2019-03-12T11:42:54.339Z,31.90
2019-03-12T11:45:35.473Z,32.67
2019-03-12T11:47:53.132Z,32.58
2019-03-12T11:50:23.175Z,32.04
2019-03-12T11:52:55.698Z,32.01
2019-03-12T11:55:21.854Z,31.94
2019-03-12T11:57:50.415Z,30.90
2019-03-12T12:00:35.569Z,31.08
2019-03-12T12:03:04.133Z,31.94
2019-03-12T12:05:32.510Z,31.01
2019-03-12T12:08:00.914Z,33.11
2019-03-12T12:10:29.454Z,34.30
2019-03-12T12:12:57.926Z,33.75
2019-03-12T12:15:27.504Z,33.06
2019-03-12T12:17:55.902Z,29.84
2019-03-12T12:20:29.407Z,28.18
2019-03-12T12:22:54.479Z,26.79
2019-03-12T12:25:22.874Z,25.55
2019-03-12T12:27:51.594Z,24.65
2019-03-12T12:30:20.932Z,24.93
2019-03-12T12:32:49.331Z,25.57
2019-03-12T12:35:17.801Z,26.43
2019-03-12T12:37:46.270Z,26.54
2019-03-12T12:40:19.655Z,26.88
2019-03-12T12:42:48.112Z,25.87
2019-03-12T12:45:28.687Z,26.78
2019-03-12T12:47:57.163Z,27.69
2019-03-12T12:50:25.690Z,27.67
2019-03-12T12:52:54.154Z,27.23
2019-03-12T12:55:22.618Z,27.78
2019-03-12T12:57:51.015Z,28.56
2019-03-12T13:00:25.092Z,30.68
2019-03-12T13:02:53.505Z,30.84
2019-03-12T13:05:22.152Z,32.21
2019-03-12T13:07:50.680Z,33.22
2019-03-12T13:10:35.083Z,33.80
2019-03-12T13:13:03.482Z,33.88
2019-03-12T13:15:31.893Z,34.63
2019-03-12T13:18:00.306Z,34.83
2019-03-12T13:20:28.706Z,35.59
2019-03-12T13:22:57.106Z,35.00
2019-03-12T13:25:25.676Z,35.32
2019-03-12T13:27:54.146Z,35.29
2019-03-12T13:30:23.888Z,35.63
2019-03-12T13:32:52.289Z,35.17
2019-03-12T13:35:21.122Z,34.99
2019-03-12T13:37:50.070Z,34.01
2019-03-12T13:40:22.635Z,33.40
2019-03-12T13:42:51.897Z,30.67
2019-03-12T13:45:28.164Z,29.33
2019-03-12T13:47:57.053Z,27.79
2019-03-12T13:50:25.855Z,26.23
2019-03-12T13:52:54.553Z,25.64
2019-03-12T13:55:23.525Z,24.95
2019-03-12T13:57:52.011Z,24.74
2019-03-12T14:00:28.219Z,25.03
2019-03-12T14:02:56.827Z,26.29
2019-03-12T14:05:25.214Z,25.73
2019-03-12T14:07:53.708Z,23.71
2019-03-12T14:10:26.953Z,23.40
2019-03-12T14:12:56.703Z,23.53
2019-03-12T14:15:27.814Z,23.54
2019-03-12T14:17:56.584Z,25.24
2019-03-12T14:20:39.621Z,24.77
2019-03-12T14:23:08.585Z,23.37
2019-03-12T14:25:37.310Z,23.78
2019-03-12T14:28:05.994Z,24.52
2019-03-12T14:30:34.665Z,23.99
2019-03-12T14:33:03.331Z,24.27
2019-03-12T14:35:31.781Z,24.68
2019-03-12T14:38:00.195Z,25.19
2019-03-12T14:40:28.665Z,25.55
2019-03-12T14:42:57.143Z,24.15
2019-03-12T14:45:29.588Z,23.23
2019-03-12T14:47:58.270Z,23.41
2019-03-12T14:50:28.960Z,22.82
2019-03-12T14:53:07.699Z,23.01
2019-03-12T14:55:36.640Z,21.70
2019-03-12T14:58:05.394Z,22.04
2019-03-12T15:00:33.887Z,21.94
2019-03-12T15:03:02.361Z,22.76
2019-03-12T15:05:30.949Z,23.05
2019-03-12T15:07:59.702Z,22.47
2019-03-12T15:10:28.132Z,24.14
2019-03-12T15:12:56.536Z,24.72
2019-03-12T15:15:25.264Z,25.42
2019-03-12T15:17:53.639Z,24.98
2019-03-12T15:20:22.063Z,25.04
2019-03-12T15:22:50.614Z,26.01
2019-03-12T15:25:19.046Z,27.41
2019-03-12T15:27:47.515Z,28.33
2019-03-12T15:30:24.405Z,28.49
2019-03-12T15:33:02.451Z,29.76
2019-03-12T15:35:31.746Z,30.51
2019-03-12T15:38:00.218Z,31.22
2019-03-12T15:40:28.693Z,31.52
2019-03-12T15:42:57.288Z,30.70
2019-03-12T15:45:25.717Z,30.95
2019-03-12T15:47:54.185Z,31.41
2019-03-12T15:50:22.627Z,31.36
2019-03-12T15:52:51.073Z,30.63
2019-03-12T15:55:19.565Z,30.93
2019-03-12T15:57:47.965Z,30.79
2019-03-12T16:00:17.930Z,31.67
2019-03-12T16:02:46.353Z,32.33
2019-03-12T16:05:14.944Z,32.50
2019-03-12T16:07:43.403Z,32.92
2019-03-12T16:10:20.901Z,33.87
2019-03-12T16:12:49.428Z,33.85
2019-03-12T16:15:18.693Z,34.30
2019-03-12T16:17:47.123Z,34.36
2019-03-12T16:20:22.795Z,34.79
2019-03-12T16:22:51.232Z,35.29
2019-03-12T16:25:19.702Z,35.50
2019-03-12T16:27:48.174Z,35.00
2019-03-12T16:30:18.920Z,35.83
2019-03-12T16:32:47.338Z,35.83
2019-03-12T16:35:16.093Z,36.10
2019-03-12T16:37:44.610Z,36.05
2019-03-12T16:40:17.222Z,36.35
2019-03-12T16:42:45.795Z,36.78
2019-03-12T16:45:18.459Z,36.82
2019-03-12T16:47:46.886Z,36.57
2019-03-12T16:50:16.464Z,36.77
2019-03-12T16:52:45.037Z,36.68
2019-03-12T16:55:18.058Z,37.18
2019-03-12T16:57:46.543Z,37.45
2019-03-12T17:00:19.979Z,37.89
2019-03-12T17:02:48.416Z,38.37
2019-03-12T17:05:16.917Z,38.50
2019-03-12T17:07:45.394Z,38.32
2019-03-12T17:10:18.551Z,38.16
2019-03-12T17:12:47.029Z,38.39
2019-03-12T17:15:20.865Z,38.39
2019-03-12T17:17:49.423Z,38.48
2019-03-12T17:20:18.100Z,38.91
2019-03-12T17:22:46.629Z,38.81
2019-03-12T17:25:15.064Z,38.81
2019-03-12T17:27:43.631Z,38.82
2019-03-12T17:30:23.100Z,38.65
2019-03-12T17:32:51.585Z,39.18
2019-03-12T17:35:37.516Z,39.18
2019-03-12T17:38:05.981Z,39.57
2019-03-12T17:40:34.412Z,40.31
2019-03-12T17:43:02.894Z,40.54
2019-03-12T17:45:31.310Z,40.54
2019-03-12T17:47:59.755Z,40.78
2019-03-12T17:50:28.181Z,40.54
2019-03-12T17:52:56.575Z,40.54
2019-03-12T17:55:24.984Z,40.73
2019-03-12T17:57:53.451Z,40.95
2019-03-12T18:00:27.793Z,40.88
2019-03-12T18:02:54.656Z,40.80
2019-03-12T18:05:23.266Z,40.87
2019-03-12T18:07:51.747Z,40.86
2019-03-12T18:10:20.336Z,41.05
2019-03-12T18:12:48.731Z,41.24
2019-03-12T18:15:21.214Z,41.15
2019-03-12T18:17:49.766Z,41.60
2019-03-12T18:20:24.545Z,41.56
2019-03-12T18:22:52.929Z,42.00
2019-03-12T18:25:30.278Z,42.27
2019-03-12T18:27:58.858Z,42.13
2019-03-12T18:30:27.335Z,42.37
2019-03-12T18:32:55.725Z,42.27
2019-03-12T18:35:24.189Z,42.12
2019-03-12T18:37:52.599Z,42.63
2019-03-12T18:40:25.557Z,42.47
2019-03-12T18:42:54.119Z,42.77
2019-03-12T18:45:31.315Z,43.04
2019-03-12T18:47:59.727Z,43.04
2019-03-12T18:50:28.248Z,42.85
2019-03-12T18:52:56.782Z,43.04
2019-03-12T18:55:31.139Z,43.16
2019-03-12T18:57:59.577Z,43.16
2019-03-12T19:00:28.146Z,43.38
2019-03-12T19:02:56.615Z,43.70
2019-03-12T19:05:28.036Z,43.39
2019-03-12T19:07:55.185Z,42.98
2019-03-12T19:10:23.741Z,42.89
2019-03-12T19:12:52.366Z,43.13
2019-03-12T19:15:20.898Z,42.90
2019-03-12T19:17:49.404Z,43.33
2019-03-12T19:20:18.739Z,43.05
2019-03-12T19:22:47.215Z,43.21
2019-03-12T19:25:18.061Z,43.17
2019-03-12T19:27:58.867Z,42.79
2019-03-12T19:30:18.226Z,42.86
2019-03-12T19:32:48.718Z,42.86
2019-03-12T19:35:20.393Z,42.83
2019-03-12T19:37:49.019Z,42.63
2019-03-12T19:40:20.468Z,42.66
2019-03-12T19:42:48.860Z,42.55
2019-03-12T19:45:17.364Z,47.25
2019-03-12T19:47:45.829Z,42.21
2019-03-12T19:50:19.564Z,43.06
2019-03-12T19:52:48.171Z,44.04
2019-03-12T19:55:28.218Z,41.72
2019-03-12T19:57:56.682Z,41.62
2019-03-12T20:00:26.810Z,41.72
2019-03-12T20:02:55.669Z,41.72
2019-03-12T20:05:24.325Z,42.23
2019-03-12T20:07:52.932Z,42.00
2019-03-12T20:10:36.498Z,41.95
2019-03-12T20:13:17.032Z,41.26
2019-03-12T20:16:08.170Z,41.58
2019-03-12T20:19:13.133Z,41.96
2019-03-12T20:22:04.034Z,41.68
2019-03-12T20:24:52.120Z,41.86
2019-03-12T20:27:32.570Z,42.54
2019-03-12T20:30:04.041Z,42.69
2019-03-12T20:32:50.086Z,42.82
2019-03-12T20:35:52.207Z,42.92
2019-03-12T20:38:41.913Z,42.68
2019-03-12T20:41:32.690Z,42.76
2019-03-12T20:44:06.947Z,43.39
2019-03-12T20:46:59.390Z,43.37
2019-03-12T20:50:04.564Z,43.53
2019-03-12T20:52:51.057Z,43.77
2019-03-12T20:55:51.330Z,43.79
2019-03-12T20:58:56.107Z,43.89
2019-03-12T21:04:00.772Z,43.88
2019-03-12T21:07:04.203Z,43.82
2019-03-12T21:10:08.524Z,43.27
2019-03-12T21:12:45.585Z,43.30
2019-03-12T21:15:36.384Z,43.84
2019-03-12T21:18:28.671Z,44.92
2019-03-12T21:21:23.013Z,47.96
2019-03-12T21:24:01.402Z,47.18
2019-03-12T21:26:45.062Z,47.98
2019-03-12T21:29:42.232Z,48.27
2019-03-12T21:32:11.618Z,48.73
2019-03-12T21:34:40.104Z,48.50
2019-03-12T21:37:08.642Z,48.69
2019-03-12T21:39:37.208Z,47.79
2019-03-12T21:42:06.360Z,46.28
2019-03-12T21:44:35.053Z,46.91
2019-03-12T21:47:03.714Z,47.72
2019-03-12T21:49:32.230Z,48.63
2019-03-12T21:52:00.762Z,47.73
2019-03-12T21:54:29.304Z,47.64
2019-03-12T21:56:57.711Z,48.11
2019-03-12T21:59:26.184Z,49.51
2019-03-12T22:01:54.622Z,49.06
2019-03-12T22:04:23.066Z,50.18
2019-03-12T22:06:51.561Z,50.66
2019-03-12T22:09:19.976Z,51.32
2019-03-12T22:11:48.472Z,50.31
2019-03-12T22:14:16.866Z,49.90
2019-03-12T22:16:46.584Z,50.75
2019-03-12T22:19:17.951Z,52.71
2019-03-12T22:21:57.133Z,52.03
2019-03-12T22:24:25.615Z,52.03
2019-03-12T22:26:54.183Z,51.31
2019-03-12T22:29:22.687Z,46.33
2019-03-12T22:31:51.109Z,47.23
2019-03-12T22:34:19.542Z,48.38
2019-03-12T22:36:47.951Z,49.53
2019-03-12T22:39:16.412Z,49.90
2019-03-12T22:41:45.039Z,51.43
2019-03-12T22:44:13.551Z,53.42
2019-03-12T22:46:41.966Z,53.78
2019-03-12T22:49:10.381Z,53.23
2019-03-12T22:51:38.776Z,52.86
2019-03-12T22:54:07.162Z,51.54
2019-03-12T22:56:35.669Z,51.70
2019-03-12T22:59:04.049Z,50.40
2019-03-12T23:01:32.611Z,49.95
2019-03-12T23:04:01.076Z,50.57
2019-03-12T23:06:29.538Z,50.37
2019-03-12T23:08:58.048Z,50.65
2019-03-12T23:11:26.507Z,50.56
2019-03-12T23:13:54.985Z,50.56
2019-03-12T23:16:23.522Z,50.38
2019-03-12T23:18:52.075Z,51.57
2019-03-12T23:21:20.433Z,51.12
2019-03-12T23:23:48.850Z,51.46
2019-03-12T23:26:17.300Z,51.41
2019-03-12T23:28:45.850Z,51.08
2019-03-12T23:31:14.329Z,51.51
2019-03-12T23:33:45.202Z,51.67
2019-03-12T23:36:13.677Z,52.32
2019-03-12T23:38:42.351Z,53.31
2019-03-12T23:41:10.745Z,53.31
2019-03-12T23:43:39.233Z,54.42
2019-03-12T23:46:07.699Z,55.54
2019-03-12T23:48:36.127Z,55.80
2019-03-12T23:51:04.597Z,56.89
2019-03-12T23:53:33.001Z,58.48
2019-03-12T23:56:01.533Z,58.48
2019-03-12T23:58:31.224Z,59.56
